119 Degrees Before Noon

Mark and Charleen,
My new Sports Cap and neck wrap arrived today where 119 degree heat will be reached before the noon hour in southern Iraq.  The items sent courtesy of my wife in San Diego, CA will definitely come in handy.
 
Weather Report
Al Basrah, Iraq
Local Reporting Station
 113°F
Feels Like: 113°
Wind Chill:
113°
Humidity:
10%
Location:  30.5°N, 47.83°E 
Report Text: ORMM 100700Z 35008KT CAVOK 45/06 Q1003
 
Thanks Again,
Marco-
Basrah, Iraq
Previous post Next Post